sensor_id;sensor_type;location;lat;lon;timestamp;pressure;altitude;pressure_sealevel;temperature;humidity
50790;BME280;37287;47.554;7.844;2022-10-16T00:01:23;97781.69;;;12.93;100.00
50790;BME280;37287;47.554;7.844;2022-10-16T00:03:50;97785.50;;;13.10;100.00
50790;BME280;37287;47.554;7.844;2022-10-16T00:06:19;97780.03;;;13.17;100.00
50790;BME280;37287;47.554;7.844;2022-10-16T00:08:49;97783.50;;;13.21;100.00
50790;BME280;37287;47.554;7.844;2022-10-16T00:11:21;97783.16;;;13.12;100.00
50790;BME280;37287;47.554;7.844;2022-10-16T00:13:51;97770.81;;;12.82;100.00
50790;BME280;37287;47.554;7.844;2022-10-16T00:16:19;97772.00;;;12.81;100.00
50790;BME280;37287;47.554;7.844;2022-10-16T00:18:46;97771.16;;;12.95;100.00
50790;BME280;37287;47.554;7.844;2022-10-16T00:21:18;97780.78;;;13.21;100.00
50790;BME280;37287;47.554;7.844;2022-10-16T00:23:50;97781.91;;;13.38;100.00
50790;BME280;37287;47.554;7.844;2022-10-16T00:26:17;97790.78;;;13.46;100.00
50790;BME280;37287;47.554;7.844;2022-10-16T00:28:49;97776.81;;;13.40;100.00
50790;BME280;37287;47.554;7.844;2022-10-16T00:31:17;97777.63;;;13.30;100.00
50790;BME280;37287;47.554;7.844;2022-10-16T00:33:45;97784.22;;;13.32;100.00
50790;BME280;37287;47.554;7.844;2022-10-16T00:36:14;97779.53;;;13.44;100.00
50790;BME280;37287;47.554;7.844;2022-10-16T00:38:43;97786.41;;;13.63;100.00
50790;BME280;37287;47.554;7.844;2022-10-16T00:41:16;97798.81;;;13.71;100.00
50790;BME280;37287;47.554;7.844;2022-10-16T00:43:57;97805.41;;;13.73;100.00
50790;BME280;37287;47.554;7.844;2022-10-16T00:46:35;97803.09;;;13.72;100.00
50790;BME280;37287;47.554;7.844;2022-10-16T00:51:42;97805.41;;;13.77;100.00
50790;BME280;37287;47.554;7.844;2022-10-16T00:54:25;97806.16;;;13.74;100.00
50790;BME280;37287;47.554;7.844;2022-10-16T00:56:53;97804.25;;;13.74;100.00
50790;BME280;37287;47.554;7.844;2022-10-16T00:59:27;97806.97;;;13.74;100.00
50790;BME280;37287;47.554;7.844;2022-10-16T01:01:58;97810.84;;;13.73;100.00
50790;BME280;37287;47.554;7.844;2022-10-16T01:04:34;97806.97;;;13.71;100.00
50790;BME280;37287;47.554;7.844;2022-10-16T01:07:27;97807.00;;;13.64;100.00
50790;BME280;37287;47.554;7.844;2022-10-16T01:12:58;97798.84;;;13.64;100.00
50790;BME280;37287;47.554;7.844;2022-10-16T01:15:37;97803.91;;;13.65;100.00
50790;BME280;37287;47.554;7.844;2022-10-16T01:21:01;97818.28;;;13.62;100.00
50790;BME280;37287;47.554;7.844;2022-10-16T01:26:14;97813.75;;;13.37;100.00
50790;BME280;37287;47.554;7.844;2022-10-16T01:28:58;97811.84;;;13.23;100.00
50790;BME280;37287;47.554;7.844;2022-10-16T01:31:32;97818.88;;;13.14;100.00
50790;BME280;37287;47.554;7.844;2022-10-16T01:34:06;97832.50;;;13.03;100.00
50790;BME280;37287;47.554;7.844;2022-10-16T01:36:41;97832.91;;;12.94;100.00
50790;BME280;37287;47.554;7.844;2022-10-16T01:39:10;97829.03;;;12.84;100.00
50790;BME280;37287;47.554;7.844;2022-10-16T01:41:44;97816.63;;;12.76;100.00
50790;BME280;37287;47.554;7.844;2022-10-16T01:44:14;97808.50;;;12.69;100.00
50790;BME280;37287;47.554;7.844;2022-10-16T01:46:44;97810.06;;;12.63;100.00
50790;BME280;37287;47.554;7.844;2022-10-16T01:49:12;97801.91;;;12.59;100.00
50790;BME280;37287;47.554;7.844;2022-10-16T01:51:41;97794.16;;;12.58;100.00
50790;BME280;37287;47.554;7.844;2022-10-16T01:54:11;97807.75;;;12.58;100.00
50790;BME280;37287;47.554;7.844;2022-10-16T01:56:40;97810.09;;;12.55;100.00
50790;BME280;37287;47.554;7.844;2022-10-16T01:59:18;97814.72;;;12.55;100.00
50790;BME280;37287;47.554;7.844;2022-10-16T02:01:50;97803.50;;;12.53;100.00
50790;BME280;37287;47.554;7.844;2022-10-16T02:04:25;97800.38;;;12.51;100.00
50790;BME280;37287;47.554;7.844;2022-10-16T02:06:52;97779.44;;;12.51;100.00
50790;BME280;37287;47.554;7.844;2022-10-16T02:09:20;97790.28;;;12.55;100.00
50790;BME280;37287;47.554;7.844;2022-10-16T02:11:50;97786.78;;;12.62;100.00
50790;BME280;37287;47.554;7.844;2022-10-16T02:14:19;97801.91;;;12.70;100.00
50790;BME280;37287;47.554;7.844;2022-10-16T02:16:46;97803.81;;;12.84;100.00
50790;BME280;37287;47.554;7.844;2022-10-16T02:19:18;97812.72;;;12.95;100.00
50790;BME280;37287;47.554;7.844;2022-10-16T02:21:58;97811.16;;;13.05;100.00
50790;BME280;37287;47.554;7.844;2022-10-16T02:24:35;97815.75;;;13.15;100.00
50790;BME280;37287;47.554;7.844;2022-10-16T02:27:16;97808.00;;;13.14;100.00
50790;BME280;37287;47.554;7.844;2022-10-16T02:29:53;97813.44;;;13.14;100.00
50790;BME280;37287;47.554;7.844;2022-10-16T02:32:30;97805.66;;;13.19;100.00
50790;BME280;37287;47.554;7.844;2022-10-16T02:34:59;97808.72;;;13.29;100.00
50790;BME280;37287;47.554;7.844;2022-10-16T02:37:27;97808.72;;;13.29;100.00
50790;BME280;37287;47.554;7.844;2022-10-16T02:39:56;97822.69;;;13.31;100.00
50790;BME280;37287;47.554;7.844;2022-10-16T02:42:32;97821.13;;;13.30;100.00
50790;BME280;37287;47.554;7.844;2022-10-16T02:44:59;97826.56;;;13.26;100.00
50790;BME280;37287;47.554;7.844;2022-10-16T02:47:27;97827.38;;;13.23;100.00
50790;BME280;37287;47.554;7.844;2022-10-16T02:49:57;97832.03;;;13.22;100.00
50790;BME280;37287;47.554;7.844;2022-10-16T02:52:24;97818.84;;;13.21;100.00
50790;BME280;37287;47.554;7.844;2022-10-16T02:54:51;97814.97;;;13.18;100.00
50790;BME280;37287;47.554;7.844;2022-10-16T02:57:18;97827.38;;;13.27;100.00
50790;BME280;37287;47.554;7.844;2022-10-16T02:59:45;97832.78;;;13.34;100.00
50790;BME280;37287;47.554;7.844;2022-10-16T03:02:11;97843.66;;;13.34;100.00
50790;BME280;37287;47.554;7.844;2022-10-16T03:04:40;97836.69;;;13.29;100.00
50790;BME280;37287;47.554;7.844;2022-10-16T03:07:07;97839.81;;;13.20;100.00
50790;BME280;37287;47.554;7.844;2022-10-16T03:09:35;97839.84;;;13.06;100.00
50790;BME280;37287;47.554;7.844;2022-10-16T03:12:08;97833.69;;;12.98;100.00
50790;BME280;37287;47.554;7.844;2022-10-16T03:14:34;97833.69;;;12.91;100.00
50790;BME280;37287;47.554;7.844;2022-10-16T03:17:01;97832.16;;;12.83;100.00
50790;BME280;37287;47.554;7.844;2022-10-16T03:19:29;97836.06;;;12.78;100.00
50790;BME280;37287;47.554;7.844;2022-10-16T03:21:56;97839.13;;;12.77;100.00
50790;BME280;37287;47.554;7.844;2022-10-16T03:24:23;97829.06;;;12.77;100.00
50790;BME280;37287;47.554;7.844;2022-10-16T03:26:51;97824.41;;;12.78;100.00
50790;BME280;37287;47.554;7.844;2022-10-16T03:29:18;97823.22;;;12.75;100.00
50790;BME280;37287;47.554;7.844;2022-10-16T03:31:45;97827.91;;;12.75;100.00
50790;BME280;37287;47.554;7.844;2022-10-16T03:34:13;97824.00;;;12.72;100.00
50790;BME280;37287;47.554;7.844;2022-10-16T03:36:40;97836.81;;;12.68;100.00
50790;BME280;37287;47.554;7.844;2022-10-16T03:39:06;97831.78;;;12.70;100.00
50790;BME280;37287;47.554;7.844;2022-10-16T03:41:35;97833.31;;;12.71;100.00
50790;BME280;37287;47.554;7.844;2022-10-16T03:44:04;97833.72;;;12.80;100.00
50790;BME280;37287;47.554;7.844;2022-10-16T03:46:31;97835.63;;;12.90;100.00
50790;BME280;37287;47.554;7.844;2022-10-16T03:48:59;97831.72;;;12.99;100.00
50790;BME280;37287;47.554;7.844;2022-10-16T03:51:26;97832.06;;;13.12;100.00
50790;BME280;37287;47.554;7.844;2022-10-16T03:53:52;97832.41;;;13.24;100.00
50790;BME280;37287;47.554;7.844;2022-10-16T03:56:26;97842.88;;;13.30;100.00
50790;BME280;37287;47.554;7.844;2022-10-16T03:58:52;97838.22;;;13.34;100.00
50790;BME280;37287;47.554;7.844;2022-10-16T04:01:20;97842.88;;;13.37;100.00
50790;BME280;37287;47.554;7.844;2022-10-16T04:03:47;97840.56;;;13.39;100.00
50790;BME280;37287;47.554;7.844;2022-10-16T04:06:14;97836.66;;;13.40;100.00
50790;BME280;37287;47.554;7.844;2022-10-16T04:08:42;97828.91;;;13.42;100.00
50790;BME280;37287;47.554;7.844;2022-10-16T04:11:11;97834.34;;;13.42;100.00
50790;BME280;37287;47.554;7.844;2022-10-16T04:13:38;97841.28;;;13.43;100.00
50790;BME280;37287;47.554;7.844;2022-10-16T04:16:04;97840.13;;;13.44;100.00
50790;BME280;37287;47.554;7.844;2022-10-16T04:18:31;97841.28;;;13.43;100.00
50790;BME280;37287;47.554;7.844;2022-10-16T04:21:03;97838.22;;;13.45;100.00
50790;BME280;37287;47.554;7.844;2022-10-16T04:23:32;97836.66;;;13.44;100.00
50790;BME280;37287;47.554;7.844;2022-10-16T04:26:05;97831.22;;;13.44;100.00
50790;BME280;37287;47.554;7.844;2022-10-16T04:28:32;97838.22;;;13.45;100.00
50790;BME280;37287;47.554;7.844;2022-10-16T04:30:59;97826.94;;;13.46;100.00
50790;BME280;37287;47.554;7.844;2022-10-16T04:33:27;97831.19;;;13.47;100.00
50790;BME280;37287;47.554;7.844;2022-10-16T04:35:58;97830.78;;;13.49;100.00
50790;BME280;37287;47.554;7.844;2022-10-16T04:38:25;97816.41;;;13.48;100.00
50790;BME280;37287;47.554;7.844;2022-10-16T04:40:52;97828.09;;;13.45;100.00
50790;BME280;37287;47.554;7.844;2022-10-16T04:43:19;97824.56;;;13.48;100.00
50790;BME280;37287;47.554;7.844;2022-10-16T04:45:46;97828.06;;;13.49;100.00
50790;BME280;37287;47.554;7.844;2022-10-16T04:48:14;97842.06;;;13.51;100.00
50790;BME280;37287;47.554;7.844;2022-10-16T04:50:41;97842.78;;;13.58;100.00
50790;BME280;37287;47.554;7.844;2022-10-16T04:53:07;97846.69;;;13.57;100.00
50790;BME280;37287;47.554;7.844;2022-10-16T04:55:36;97849.03;;;13.59;100.00
50790;BME280;37287;47.554;7.844;2022-10-16T04:58:05;97852.50;;;13.59;100.00
50790;BME280;37287;47.554;7.844;2022-10-16T05:00:31;97841.22;;;13.65;100.00
50790;BME280;37287;47.554;7.844;2022-10-16T05:03:04;97845.88;;;13.64;100.00
50790;BME280;37287;47.554;7.844;2022-10-16T05:05:35;97857.53;;;13.65;100.00
50790;BME280;37287;47.554;7.844;2022-10-16T05:08:02;97850.16;;;13.65;100.00
50790;BME280;37287;47.554;7.844;2022-10-16T05:10:29;97838.91;;;13.63;100.00
50790;BME280;37287;47.554;7.844;2022-10-16T05:12:55;97836.94;;;13.64;100.00
50790;BME280;37287;47.554;7.844;2022-10-16T05:15:22;97836.94;;;13.64;100.00
50790;BME280;37287;47.554;7.844;2022-10-16T05:17:53;97840.41;;;13.68;100.00
50790;BME280;37287;47.554;7.844;2022-10-16T05:20:20;97829.13;;;13.73;100.00
50790;BME280;37287;47.554;7.844;2022-10-16T05:22:47;97832.63;;;13.73;100.00
50790;BME280;37287;47.554;7.844;2022-10-16T05:25:16;97835.69;;;13.75;100.00
50790;BME280;37287;47.554;7.844;2022-10-16T05:27:43;97833.38;;;13.78;100.00
50790;BME280;37287;47.554;7.844;2022-10-16T05:30:09;97838.81;;;13.74;100.00
50790;BME280;37287;47.554;7.844;2022-10-16T05:32:38;97833.38;;;13.74;100.00
50790;BME280;37287;47.554;7.844;2022-10-16T05:35:05;97837.28;;;13.73;100.00
50790;BME280;37287;47.554;7.844;2022-10-16T05:37:37;97839.22;;;13.72;100.00
50790;BME280;37287;47.554;7.844;2022-10-16T05:40:03;97847.38;;;13.72;100.00
50790;BME280;37287;47.554;7.844;2022-10-16T05:42:31;97843.09;;;13.75;100.00
50790;BME280;37287;47.554;7.844;2022-10-16T05:44:57;97852.03;;;13.75;100.00
50790;BME280;37287;47.554;7.844;2022-10-16T05:47:26;97862.13;;;13.75;100.00
50790;BME280;37287;47.554;7.844;2022-10-16T05:49:53;97866.06;;;13.70;100.00
50790;BME280;37287;47.554;7.844;2022-10-16T05:52:20;97861.03;;;13.69;100.00
50790;BME280;37287;47.554;7.844;2022-10-16T05:54:48;97871.09;;;13.68;100.00
50790;BME280;37287;47.554;7.844;2022-10-16T05:57:15;97881.63;;;13.66;100.00
50790;BME280;37287;47.554;7.844;2022-10-16T05:59:41;97864.13;;;13.67;100.00
50790;BME280;37287;47.554;7.844;2022-10-16T06:02:14;97876.16;;;13.73;100.00
50790;BME280;37287;47.554;7.844;2022-10-16T06:04:40;97885.06;;;13.78;100.00
50790;BME280;37287;47.554;7.844;2022-10-16T06:07:07;97866.69;;;13.96;100.00
50790;BME280;37287;47.554;7.844;2022-10-16T06:09:42;97895.38;;;14.12;100.00
50790;BME280;37287;47.554;7.844;2022-10-16T06:12:08;97884.59;;;13.93;100.00
50790;BME280;37287;47.554;7.844;2022-10-16T06:14:36;97889.28;;;13.89;100.00
50790;BME280;37287;47.554;7.844;2022-10-16T06:17:13;97885.44;;;13.83;100.00
50790;BME280;37287;47.554;7.844;2022-10-16T06:19:41;97909.53;;;13.81;100.00
50790;BME280;37287;47.554;7.844;2022-10-16T06:22:07;97904.88;;;13.78;100.00
50790;BME280;37287;47.554;7.844;2022-10-16T06:24:34;97908.75;;;13.81;100.00
50790;BME280;37287;47.554;7.844;2022-10-16T06:27:00;97913.00;;;13.85;100.00
50790;BME280;37287;47.554;7.844;2022-10-16T06:29:27;97910.69;;;13.87;100.00
50790;BME280;37287;47.554;7.844;2022-10-16T06:31:53;97908.31;;;13.89;100.00
50790;BME280;37287;47.554;7.844;2022-10-16T06:34:20;97908.69;;;13.99;100.00
50790;BME280;37287;47.554;7.844;2022-10-16T06:36:46;97910.97;;;14.04;100.00
50790;BME280;37287;47.554;7.844;2022-10-16T06:39:17;97914.47;;;14.04;100.00
50790;BME280;37287;47.554;7.844;2022-10-16T06:41:45;97921.06;;;14.07;100.00
50790;BME280;37287;47.554;7.844;2022-10-16T06:44:12;97927.66;;;14.13;100.00
50790;BME280;37287;47.554;7.844;2022-10-16T06:46:38;97929.56;;;14.16;100.00
50790;BME280;37287;47.554;7.844;2022-10-16T06:49:05;97934.22;;;14.23;100.00
50790;BME280;37287;47.554;7.844;2022-10-16T06:51:33;97933.34;;;14.33;100.00
50790;BME280;37287;47.554;7.844;2022-10-16T06:54:08;97933.34;;;14.37;100.00
50790;BME280;37287;47.554;7.844;2022-10-16T06:56:35;97937.56;;;14.45;100.00
50790;BME280;37287;47.554;7.844;2022-10-16T06:59:02;97942.53;;;14.57;100.00
50790;BME280;37287;47.554;7.844;2022-10-16T07:01:30;97946.31;;;14.78;100.00
50790;BME280;37287;47.554;7.844;2022-10-16T07:03:58;97953.56;;;16.06;100.00
50790;BME280;37287;47.554;7.844;2022-10-16T07:06:31;97959.41;;;16.90;95.82
50790;BME280;37287;47.554;7.844;2022-10-16T07:09:02;97962.88;;;17.58;95.14
50790;BME280;37287;47.554;7.844;2022-10-16T07:11:30;97965.00;;;17.70;88.93
50790;BME280;37287;47.554;7.844;2022-10-16T07:13:56;97967.78;;;17.87;87.68
50790;BME280;37287;47.554;7.844;2022-10-16T07:16:26;97966.41;;;18.19;90.96
50790;BME280;37287;47.554;7.844;2022-10-16T07:18:57;97967.09;;;18.23;86.48
50790;BME280;37287;47.554;7.844;2022-10-16T07:21:30;97982.69;;;18.96;82.89
50790;BME280;37287;47.554;7.844;2022-10-16T07:23:59;97984.94;;;19.01;81.96
50790;BME280;37287;47.554;7.844;2022-10-16T07:26:31;97972.75;;;19.48;83.57
50790;BME280;37287;47.554;7.844;2022-10-16T07:28:59;97985.00;;;19.89;77.56
50790;BME280;37287;47.554;7.844;2022-10-16T07:31:27;97974.72;;;20.06;76.04
50790;BME280;37287;47.554;7.844;2022-10-16T07:33:54;97988.59;;;20.54;74.61
50790;BME280;37287;47.554;7.844;2022-10-16T07:36:21;97989.25;;;20.96;74.94
50790;BME280;37287;47.554;7.844;2022-10-16T07:38:47;97986.56;;;21.19;72.77
50790;BME280;37287;47.554;7.844;2022-10-16T07:41:20;97991.72;;;20.43;77.06
50790;BME280;37287;47.554;7.844;2022-10-16T07:43:49;97998.03;;;21.17;76.66
50790;BME280;37287;47.554;7.844;2022-10-16T07:46:17;97995.91;;;21.34;74.92
50790;BME280;37287;47.554;7.844;2022-10-16T07:48:44;97993.69;;;20.94;74.34
50790;BME280;37287;47.554;7.844;2022-10-16T07:51:15;98006.19;;;21.21;76.08
50790;BME280;37287;47.554;7.844;2022-10-16T07:53:42;98009.84;;;21.53;73.88
50790;BME280;37287;47.554;7.844;2022-10-16T07:56:11;97999.03;;;21.10;75.23
50790;BME280;37287;47.554;7.844;2022-10-16T07:58:38;98000.84;;;21.39;70.79
50790;BME280;37287;47.554;7.844;2022-10-16T08:01:10;98005.66;;;21.61;69.93
50790;BME280;37287;47.554;7.844;2022-10-16T08:03:44;98012.94;;;21.77;72.52
50790;BME280;37287;47.554;7.844;2022-10-16T08:06:11;98024.06;;;21.86;70.73
50790;BME280;37287;47.554;7.844;2022-10-16T08:08:38;98019.06;;;21.59;66.75
50790;BME280;37287;47.554;7.844;2022-10-16T08:11:04;98013.84;;;21.74;69.83
50790;BME280;37287;47.554;7.844;2022-10-16T08:13:31;98017.69;;;21.76;69.85
50790;BME280;37287;47.554;7.844;2022-10-16T08:15:58;98027.19;;;21.97;70.49
50790;BME280;37287;47.554;7.844;2022-10-16T08:18:25;98033.06;;;22.31;69.38
50790;BME280;37287;47.554;7.844;2022-10-16T08:20:59;98036.78;;;22.15;66.11
50790;BME280;37287;47.554;7.844;2022-10-16T08:23:30;98040.25;;;22.28;69.15
50790;BME280;37287;47.554;7.844;2022-10-16T08:26:04;98048.19;;;22.80;66.75
50790;BME280;37287;47.554;7.844;2022-10-16T08:28:31;98044.19;;;23.12;64.37
50790;BME280;37287;47.554;7.844;2022-10-16T08:31:13;98040.91;;;23.05;63.76
50790;BME280;37287;47.554;7.844;2022-10-16T08:33:47;98027.41;;;22.57;65.94
50790;BME280;37287;47.554;7.844;2022-10-16T08:36:16;98021.28;;;22.62;66.63
50790;BME280;37287;47.554;7.844;2022-10-16T08:38:43;98023.16;;;22.74;66.81
50790;BME280;37287;47.554;7.844;2022-10-16T08:44:01;98031.00;;;23.26;62.48
50790;BME280;37287;47.554;7.844;2022-10-16T08:46:58;98029.78;;;23.17;59.99
50790;BME280;37287;47.554;7.844;2022-10-16T08:49:29;98038.69;;;23.31;64.17
50790;BME280;37287;47.554;7.844;2022-10-16T08:52:00;98039.19;;;23.76;63.55
50790;BME280;37287;47.554;7.844;2022-10-16T08:54:37;98046.09;;;23.99;58.73
50790;BME280;37287;47.554;7.844;2022-10-16T08:57:20;98043.31;;;23.80;57.03
50790;BME280;37287;47.554;7.844;2022-10-16T08:59:50;98044.22;;;23.49;63.06
50790;BME280;37287;47.554;7.844;2022-10-16T09:02:36;98056.13;;;22.37;59.77
50790;BME280;37287;47.554;7.844;2022-10-16T09:08:34;98067.97;;;20.26;69.73
50790;BME280;37287;47.554;7.844;2022-10-16T09:11:21;98055.09;;;19.64;73.82
50790;BME280;37287;47.554;7.844;2022-10-16T09:14:07;98057.22;;;19.73;71.83
50790;BME280;37287;47.554;7.844;2022-10-16T09:16:46;98052.94;;;20.31;68.13
50790;BME280;37287;47.554;7.844;2022-10-16T09:19:24;98054.72;;;20.37;67.95
50790;BME280;37287;47.554;7.844;2022-10-16T09:21:54;98055.44;;;19.66;72.41
50790;BME280;37287;47.554;7.844;2022-10-16T09:24:24;98055.22;;;19.44;75.26
50790;BME280;37287;47.554;7.844;2022-10-16T09:26:54;98050.56;;;19.41;73.84
50790;BME280;37287;47.554;7.844;2022-10-16T09:29:21;98055.84;;;19.19;73.79
50790;BME280;37287;47.554;7.844;2022-10-16T09:31:52;98058.56;;;19.02;76.59
50790;BME280;37287;47.554;7.844;2022-10-16T09:34:30;98058.06;;;18.91;76.24
50790;BME280;37287;47.554;7.844;2022-10-16T09:36:59;98048.63;;;18.92;77.01
50790;BME280;37287;47.554;7.844;2022-10-16T09:39:27;98060.03;;;19.07;76.03
50790;BME280;37287;47.554;7.844;2022-10-16T09:41:54;98063.13;;;19.42;74.46
50790;BME280;37287;47.554;7.844;2022-10-16T09:44:26;98059.53;;;19.91;73.99
50790;BME280;37287;47.554;7.844;2022-10-16T09:47:14;98049.28;;;20.76;69.30
50790;BME280;37287;47.554;7.844;2022-10-16T09:49:58;98062.34;;;20.59;71.28
50790;BME280;37287;47.554;7.844;2022-10-16T09:52:29;98070.09;;;20.22;71.46
50790;BME280;37287;47.554;7.844;2022-10-16T09:54:58;98055.88;;;20.10;74.09
50790;BME280;37287;47.554;7.844;2022-10-16T09:57:25;98061.59;;;20.71;72.51
50790;BME280;37287;47.554;7.844;2022-10-16T09:59:54;98058.16;;;21.19;70.37
50790;BME280;37287;47.554;7.844;2022-10-16T10:02:36;98058.53;;;21.56;67.12
50790;BME280;37287;47.554;7.844;2022-10-16T10:05:18;98058.09;;;22.14;64.27
50790;BME280;37287;47.554;7.844;2022-10-16T10:07:56;98065.38;;;22.08;66.76
50790;BME280;37287;47.554;7.844;2022-10-16T10:10:28;98053.03;;;22.35;66.45
50790;BME280;37287;47.554;7.844;2022-10-16T10:12:57;98064.31;;;22.50;64.08
50790;BME280;37287;47.554;7.844;2022-10-16T10:15:24;98062.63;;;22.84;65.60
50790;BME280;37287;47.554;7.844;2022-10-16T10:17:54;98068.28;;;23.21;63.42
50790;BME280;37287;47.554;7.844;2022-10-16T10:20:32;98063.84;;;23.24;60.99
50790;BME280;37287;47.554;7.844;2022-10-16T10:23:13;98063.09;;;23.32;64.25
50790;BME280;37287;47.554;7.844;2022-10-16T10:26:11;98063.84;;;23.24;62.83
50790;BME280;37287;47.554;7.844;2022-10-16T10:28:54;98060.94;;;22.87;61.36
50790;BME280;37287;47.554;7.844;2022-10-16T10:31:31;98070.63;;;23.32;63.21
50790;BME280;37287;47.554;7.844;2022-10-16T10:40:07;98057.91;;;23.03;66.19
50790;BME280;37287;47.554;7.844;2022-10-16T10:45:26;98061.97;;;23.11;60.54
50790;BME280;37287;47.554;7.844;2022-10-16T10:50:43;98046.72;;;24.03;62.72
50790;BME280;37287;47.554;7.844;2022-10-16T10:56:20;98036.97;;;23.15;61.12
50790;BME280;37287;47.554;7.844;2022-10-16T11:01:56;98046.53;;;23.69;61.68
50790;BME280;37287;47.554;7.844;2022-10-16T11:07:01;98041.81;;;23.70;60.04
50790;BME280;37287;47.554;7.844;2022-10-16T11:09:41;98042.41;;;23.74;60.59
50790;BME280;37287;47.554;7.844;2022-10-16T11:17:39;98035.50;;;23.42;64.88
50790;BME280;37287;47.554;7.844;2022-10-16T11:22:46;98036.53;;;23.26;64.51
50790;BME280;37287;47.554;7.844;2022-10-16T11:25:22;98041.16;;;23.29;62.71
50790;BME280;37287;47.554;7.844;2022-10-16T11:27:55;98030.63;;;23.05;65.40
50790;BME280;37287;47.554;7.844;2022-10-16T11:30:27;98022.53;;;23.20;65.82
50790;BME280;37287;47.554;7.844;2022-10-16T11:35:57;98009.38;;;23.33;63.13
50790;BME280;37287;47.554;7.844;2022-10-16T11:41:34;98007.06;;;23.13;63.67
50790;BME280;37287;47.554;7.844;2022-10-16T11:44:09;98004.00;;;23.21;63.47
50790;BME280;37287;47.554;7.844;2022-10-16T11:46:47;97989.41;;;23.20;67.00
50790;BME280;37287;47.554;7.844;2022-10-16T11:49:36;97991.25;;;23.32;66.35
50790;BME280;37287;47.554;7.844;2022-10-16T11:52:13;97999.72;;;23.38;64.22
50790;BME280;37287;47.554;7.844;2022-10-16T11:54:51;98004.47;;;23.56;64.31
50790;BME280;37287;47.554;7.844;2022-10-16T11:57:23;97990.50;;;23.41;64.54
50790;BME280;37287;47.554;7.844;2022-10-16T12:05:33;97993.25;;;23.41;63.21
50790;BME280;37287;47.554;7.844;2022-10-16T12:08:10;97993.56;;;23.34;61.02
50790;BME280;37287;47.554;7.844;2022-10-16T12:10:46;98002.44;;;23.10;64.04
50790;BME280;37287;47.554;7.844;2022-10-16T12:13:33;98004.09;;;23.08;62.58
50790;BME280;37287;47.554;7.844;2022-10-16T12:18:41;97995.56;;;23.24;65.18
50790;BME280;37287;47.554;7.844;2022-10-16T12:21:10;97998.19;;;23.28;65.34
50790;BME280;37287;47.554;7.844;2022-10-16T12:23:52;98002.19;;;23.55;62.62
50790;BME280;37287;47.554;7.844;2022-10-16T12:26:27;97997.44;;;23.46;60.59
50790;BME280;37287;47.554;7.844;2022-10-16T12:28:55;97995.41;;;23.46;64.67
50790;BME280;37287;47.554;7.844;2022-10-16T12:31:48;97983.31;;;23.53;61.37
50790;BME280;37287;47.554;7.844;2022-10-16T12:34:31;97994.66;;;23.55;63.52
50790;BME280;37287;47.554;7.844;2022-10-16T12:39:40;97978.22;;;23.70;62.91
50790;BME280;37287;47.554;7.844;2022-10-16T12:44:55;97982.06;;;23.63;61.44
50790;BME280;37287;47.554;7.844;2022-10-16T12:47:34;97982.69;;;23.67;63.71
50790;BME280;37287;47.554;7.844;2022-10-16T12:52:59;97962.25;;;23.65;62.41
50790;BME280;37287;47.554;7.844;2022-10-16T13:01:17;97962.53;;;23.76;60.31
50790;BME280;37287;47.554;7.844;2022-10-16T13:06:39;97957.59;;;24.08;58.85
50790;BME280;37287;47.554;7.844;2022-10-16T13:09:19;97955.50;;;23.94;60.48
50790;BME280;37287;47.554;7.844;2022-10-16T13:20:23;97960.53;;;24.04;61.71
50790;BME280;37287;47.554;7.844;2022-10-16T13:23:03;97958.22;;;23.84;61.27
50790;BME280;37287;47.554;7.844;2022-10-16T13:25:47;97962.13;;;23.50;60.57
50790;BME280;37287;47.554;7.844;2022-10-16T13:28:27;97946.59;;;23.62;63.32
50790;BME280;37287;47.554;7.844;2022-10-16T13:30:58;97955.19;;;23.82;63.00
50790;BME280;37287;47.554;7.844;2022-10-16T13:33:36;97958.84;;;23.79;62.80
50790;BME280;37287;47.554;7.844;2022-10-16T13:36:04;97951.53;;;23.67;60.73
50790;BME280;37287;47.554;7.844;2022-10-16T13:38:33;97963.47;;;23.73;60.52
50790;BME280;37287;47.554;7.844;2022-10-16T13:41:05;97960.88;;;23.60;60.80
50790;BME280;37287;47.554;7.844;2022-10-16T13:43:35;97962.72;;;23.63;61.02
50790;BME280;37287;47.554;7.844;2022-10-16T13:46:10;97952.41;;;23.73;59.37
50790;BME280;37287;47.554;7.844;2022-10-16T13:48:38;97945.81;;;23.70;61.23
50790;BME280;37287;47.554;7.844;2022-10-16T13:51:16;97949.03;;;23.69;59.30
50790;BME280;37287;47.554;7.844;2022-10-16T13:53:44;97946.44;;;23.75;61.63
50790;BME280;37287;47.554;7.844;2022-10-16T13:56:15;97951.34;;;23.89;60.54
50790;BME280;37287;47.554;7.844;2022-10-16T13:58:44;97949.94;;;24.03;60.48
50790;BME280;37287;47.554;7.844;2022-10-16T14:01:22;97955.00;;;24.04;60.48
50790;BME280;37287;47.554;7.844;2022-10-16T14:04:15;97961.59;;;24.16;59.34
50790;BME280;37287;47.554;7.844;2022-10-16T14:06:47;97956.47;;;24.24;59.49
50790;BME280;37287;47.554;7.844;2022-10-16T14:09:28;97952.28;;;24.29;59.31
50790;BME280;37287;47.554;7.844;2022-10-16T14:11:58;97960.38;;;24.42;55.78
50790;BME280;37287;47.554;7.844;2022-10-16T14:14:39;97964.19;;;24.53;52.56
50790;BME280;37287;47.554;7.844;2022-10-16T14:17:14;97963.59;;;24.49;55.38
50790;BME280;37287;47.554;7.844;2022-10-16T14:19:46;97959.63;;;24.41;52.92
50790;BME280;37287;47.554;7.844;2022-10-16T14:22:34;97972.38;;;24.48;52.32
50790;BME280;37287;47.554;7.844;2022-10-16T14:25:13;97960.56;;;24.38;55.16
50790;BME280;37287;47.554;7.844;2022-10-16T14:27:39;97964.63;;;24.18;54.43
50790;BME280;37287;47.554;7.844;2022-10-16T14:30:21;97964.34;;;24.16;52.53
50790;BME280;37287;47.554;7.844;2022-10-16T14:32:59;97968.63;;;24.17;53.16
50790;BME280;37287;47.554;7.844;2022-10-16T14:35:36;97964.63;;;24.18;54.83
50790;BME280;37287;47.554;7.844;2022-10-16T14:38:06;97961.88;;;24.18;55.56
50790;BME280;37287;47.554;7.844;2022-10-16T14:40:47;97957.28;;;24.06;55.35
50790;BME280;37287;47.554;7.844;2022-10-16T14:43:21;97955.78;;;24.05;55.22